Time;durP1;ratioP1;P1;durP2;ratioP2;P2;SDS_P1;SDS_P2;PMS_P1;PMS_P2;Temp;Humidity;BMP_temperature;BMP_pressure;BME280_temperature;BME280_humidity;BME280_pressure;Samples;Min_cycle;Max_cycle;Signal;HPM_P1;HPM_P2
2021/10/21 00:02:25;;;;;;;4.72;3.58;;;15.90;99.90;;;;;;5033575;28;20070;-50
2021/10/21 00:04:50;;;;;;;4.35;3.40;;;16.00;99.90;;;;;;5033619;28;20139;-51
2021/10/21 00:07:16;;;;;;;4.70;3.15;;;16.00;99.90;;;;;;5033336;28;20052;-52
2021/10/21 00:09:42;;;;;;;5.72;3.50;;;15.90;99.90;;;;;;5032290;28;20043;-50
2021/10/21 00:12:07;;;;;;;4.15;3.03;;;15.90;99.90;;;;;;5033152;28;20071;-47
2021/10/21 00:14:34;;;;;;;3.15;2.83;;;15.90;99.90;;;;;;5033302;28;20121;-48
2021/10/21 00:17:00;;;;;;;3.65;3.25;;;15.90;99.90;;;;;;5033409;28;20029;-53
2021/10/21 00:19:25;;;;;;;4.97;3.05;;;15.90;99.90;;;;;;5033299;28;20374;-47
2021/10/21 00:21:51;;;;;;;4.60;3.00;;;15.80;99.90;;;;;;5033311;28;20064;-48
2021/10/21 00:24:17;;;;;;;4.07;3.33;;;15.80;99.90;;;;;;5031890;28;20021;-52
2021/10/21 00:26:43;;;;;;;3.83;2.92;;;15.80;99.90;;;;;;5033145;28;20061;-49
2021/10/21 00:29:08;;;;;;;3.63;3.00;;;15.80;99.90;;;;;;5031832;28;20029;-48
2021/10/21 00:31:34;;;;;;;5.35;3.17;;;15.80;99.90;;;;;;5032993;28;20033;-48
2021/10/21 00:33:59;;;;;;;4.35;3.33;;;15.70;99.90;;;;;;5033147;28;20026;-50
2021/10/21 00:36:25;;;;;;;4.03;3.60;;;15.70;99.90;;;;;;5033040;28;20025;-51
2021/10/21 00:38:50;;;;;;;5.60;3.20;;;15.70;99.90;;;;;;5031873;28;20028;-47
2021/10/21 00:41:16;;;;;;;7.82;3.45;;;15.70;99.90;;;;;;5032942;28;20034;-49
2021/10/21 00:43:42;;;;;;;3.85;3.15;;;15.70;99.90;;;;;;5032878;28;20112;-48
2021/10/21 00:46:09;;;;;;;3.58;2.83;;;15.70;99.90;;;;;;5032965;28;20036;-50
2021/10/21 00:48:36;;;;;;;5.72;3.45;;;15.70;99.90;;;;;;5033153;28;20380;-45
2021/10/21 00:51:02;;;;;;;3.47;3.05;;;15.70;99.90;;;;;;5032886;28;20029;-45
2021/10/21 00:53:29;;;;;;;4.50;3.22;;;15.80;99.90;;;;;;5031461;28;20465;-49
2021/10/21 00:55:55;;;;;;;3.90;2.95;;;15.80;99.90;;;;;;5032828;28;20465;-51
2021/10/21 00:58:21;;;;;;;4.32;2.80;;;15.70;99.90;;;;;;5032735;28;20096;-47
2021/10/21 01:00:47;;;;;;;5.18;3.35;;;15.80;99.90;;;;;;5032879;28;20515;-46
2021/10/21 01:03:13;;;;;;;3.47;3.17;;;15.80;99.90;;;;;;5032768;28;20029;-47
2021/10/21 01:05:38;;;;;;;3.88;2.92;;;15.80;99.90;;;;;;5032702;28;20040;-48
2021/10/21 01:08:04;;;;;;;4.63;3.83;;;15.80;99.90;;;;;;5031192;28;20136;-49
2021/10/21 01:10:30;;;;;;;3.92;2.85;;;15.80;99.90;;;;;;5032639;28;20537;-48
2021/10/21 01:12:55;;;;;;;5.18;3.17;;;15.80;99.90;;;;;;5032565;28;20033;-51
2021/10/21 01:15:25;;;;;;;5.85;3.40;;;15.90;99.90;;;;;;5032572;28;20392;-47
2021/10/21 01:17:51;;;;;;;4.00;3.10;;;15.80;99.90;;;;;;5032665;28;20049;-47
2021/10/21 01:20:17;;;;;;;3.20;2.83;;;15.80;99.90;;;;;;5032645;28;20096;-49
2021/10/21 01:22:43;;;;;;;3.47;2.90;;;15.80;99.90;;;;;;5032555;28;20455;-47
2021/10/21 01:25:09;;;;;;;5.30;3.20;;;15.80;99.90;;;;;;5034569;28;20041;-49
2021/10/21 01:27:35;;;;;;;3.10;2.80;;;15.80;99.90;;;;;;5036469;28;20378;-45
2021/10/21 01:30:00;;;;;;;3.65;3.03;;;15.80;99.90;;;;;;5036527;28;20032;-49
2021/10/21 01:32:27;;;;;;;5.57;3.55;;;15.80;99.90;;;;;;5036389;28;20029;-47
2021/10/21 01:34:53;;;;;;;3.17;2.88;;;15.90;99.90;;;;;;5036493;28;20064;-47
2021/10/21 01:37:19;;;;;;;5.43;3.40;;;15.90;99.90;;;;;;5036573;28;20045;-47
2021/10/21 01:39:45;;;;;;;3.17;2.88;;;15.90;99.90;;;;;;5034965;28;20441;-48
2021/10/21 01:42:11;;;;;;;3.88;3.47;;;15.90;99.90;;;;;;5036349;28;20025;-46
2021/10/21 01:44:36;;;;;;;5.45;3.70;;;16.00;99.90;;;;;;5036186;28;20437;-48
2021/10/21 01:47:02;;;;;;;5.22;3.42;;;16.00;99.90;;;;;;5036205;28;20056;-49
2021/10/21 01:49:27;;;;;;;4.68;3.33;;;16.00;99.90;;;;;;5036130;28;20025;-49
2021/10/21 01:51:53;;;;;;;4.30;3.50;;;16.00;99.90;;;;;;5036024;28;20025;-47
2021/10/21 01:54:19;;;;;;;3.70;3.25;;;16.00;99.90;;;;;;5034705;28;20037;-46
2021/10/21 01:56:45;;;;;;;4.32;3.80;;;16.10;99.90;;;;;;5035946;28;20384;-49
2021/10/21 01:59:10;;;;;;;4.40;3.10;;;16.10;99.90;;;;;;5035942;28;20022;-51
2021/10/21 02:01:36;;;;;;;3.45;3.15;;;16.10;99.90;;;;;;5035894;28;20036;-46
2021/10/21 02:04:02;;;;;;;3.28;2.97;;;16.10;99.90;;;;;;5034687;28;20029;-49
2021/10/21 02:06:27;;;;;;;3.95;3.22;;;16.10;99.90;;;;;;5035862;28;20397;-47
2021/10/21 02:08:53;;;;;;;3.58;2.72;;;16.20;99.90;;;;;;5034386;28;20409;-53
2021/10/21 02:11:18;;;;;;;4.35;3.50;;;16.20;99.90;;;;;;5035653;28;20044;-47
2021/10/21 02:13:44;;;;;;;5.03;2.92;;;16.20;99.90;;;;;;5035673;28;20025;-48
2021/10/21 02:16:10;;;;;;;4.30;2.75;;;16.20;99.90;;;;;;5035689;28;20205;-47
2021/10/21 02:18:35;;;;;;;4.90;3.05;;;16.20;99.90;;;;;;5035640;28;20056;-48
2021/10/21 02:21:01;;;;;;;4.25;2.67;;;16.30;99.90;;;;;;5035656;28;20105;-49
2021/10/21 02:23:26;;;;;;;3.78;2.80;;;16.30;99.90;;;;;;5034329;28;20036;-48
2021/10/21 02:25:52;;;;;;;4.50;2.70;;;16.30;99.90;;;;;;5035336;28;20025;-49
2021/10/21 02:28:18;;;;;;;2.80;2.20;;;16.20;99.90;;;;;;5035500;28;20460;-45
2021/10/21 02:30:43;;;;;;;3.92;2.65;;;16.30;99.90;;;;;;5035384;28;20036;-47
2021/10/21 02:33:09;;;;;;;3.88;2.92;;;16.30;99.90;;;;;;5034053;28;20468;-45
2021/10/21 02:35:34;;;;;;;3.88;2.22;;;16.30;99.90;;;;;;5035042;28;20026;-49
2021/10/21 02:38:00;;;;;;;2.45;2.25;;;16.30;99.90;;;;;;5034103;28;20389;-50
2021/10/21 02:40:25;;;;;;;2.47;1.92;;;16.40;99.90;;;;;;5035104;28;20028;-48
2021/10/21 02:42:51;;;;;;;2.83;2.40;;;16.30;99.90;;;;;;5035179;28;20500;-47
2021/10/21 02:45:17;;;;;;;2.20;2.00;;;16.40;99.90;;;;;;5035356;28;20033;-50
2021/10/21 02:47:44;;;;;;;3.90;2.20;;;16.40;99.90;;;;;;5035019;28;20087;-47
2021/10/21 02:50:10;;;;;;;2.60;1.80;;;16.40;99.90;;;;;;5035095;28;20033;-51
2021/10/21 02:52:36;;;;;;;2.33;2.13;;;16.40;99.90;;;;;;5034899;28;20479;-51
2021/10/21 02:55:03;;;;;;;2.67;2.47;;;16.40;99.90;;;;;;5033572;28;20025;-52
2021/10/21 02:57:28;;;;;;;2.75;1.88;;;16.40;99.90;;;;;;5034959;28;20017;-45
2021/10/21 02:59:54;;;;;;;2.70;1.65;;;16.40;99.90;;;;;;5034826;28;20047;-52
2021/10/21 03:02:19;;;;;;;3.45;2.20;;;16.30;99.90;;;;;;5034854;28;20025;-47
2021/10/21 03:04:45;;;;;;;2.53;2.10;;;16.30;99.90;;;;;;5034832;28;20045;-49
2021/10/21 03:07:10;;;;;;;3.15;2.00;;;16.40;99.90;;;;;;5034592;28;20508;-48
2021/10/21 03:09:36;;;;;;;3.13;1.52;;;16.30;99.90;;;;;;5033304;28;20029;-47
2021/10/21 03:12:01;;;;;;;2.70;1.35;;;16.30;99.90;;;;;;5034536;28;20048;-47
2021/10/21 03:14:27;;;;;;;2.00;1.75;;;16.30;99.90;;;;;;5034622;28;20032;-47
2021/10/21 03:16:52;;;;;;;4.00;2.03;;;16.30;99.90;;;;;;5034767;28;20025;-45
2021/10/21 03:19:18;;;;;;;1.83;1.70;;;16.30;99.90;;;;;;5034504;28;20516;-49
2021/10/21 03:21:43;;;;;;;2.50;1.85;;;16.30;99.90;;;;;;5034474;28;20184;-49
2021/10/21 03:24:09;;;;;;;2.15;1.90;;;16.20;99.90;;;;;;5033037;28;20033;-49
2021/10/21 03:26:35;;;;;;;2.25;1.55;;;16.20;99.90;;;;;;5034409;28;20412;-47
2021/10/21 03:29:00;;;;;;;2.05;1.83;;;16.20;99.90;;;;;;5034294;28;20032;-48
2021/10/21 03:31:29;;;;;;;1.73;1.63;;;16.20;99.90;;;;;;5034255;28;20516;-47
2021/10/21 03:33:55;;;;;;;4.10;1.80;;;16.20;99.90;;;;;;5034164;28;20514;-45
2021/10/21 03:36:21;;;;;;;2.78;1.65;;;16.20;99.90;;;;;;5034157;28;20025;-48
2021/10/21 03:38:46;;;;;;;3.10;1.70;;;16.20;99.90;;;;;;5032689;28;20048;-45
2021/10/21 03:41:12;;;;;;;2.33;1.95;;;16.20;99.90;;;;;;5034072;28;20025;-49
2021/10/21 03:43:37;;;;;;;2.65;1.90;;;16.30;99.90;;;;;;5034027;28;20075;-48
2021/10/21 03:46:03;;;;;;;4.50;1.75;;;16.30;99.90;;;;;;5033427;28;20079;-49
2021/10/21 03:48:28;;;;;;;1.92;1.50;;;16.30;99.90;;;;;;5033863;28;20048;-46
2021/10/21 03:50:54;;;;;;;1.63;1.40;;;16.30;99.90;;;;;;5033860;28;20049;-49
2021/10/21 03:53:19;;;;;;;1.52;1.30;;;16.30;99.90;;;;;;5032419;28;20034;-52
2021/10/21 03:55:45;;;;;;;2.85;1.83;;;16.20;99.90;;;;;;5033757;28;20385;-49
2021/10/21 03:58:10;;;;;;;2.90;1.80;;;16.30;99.90;;;;;;5033768;28;20080;-47
2021/10/21 04:00:36;;;;;;;1.50;1.40;;;16.30;99.90;;;;;;5033749;28;20026;-47
2021/10/21 04:03:02;;;;;;;4.07;1.60;;;16.40;99.90;;;;;;5033678;28;20034;-47
2021/10/21 04:05:27;;;;;;;3.88;1.40;;;16.30;99.90;;;;;;5033615;28;20068;-48
2021/10/21 04:07:53;;;;;;;4.72;1.77;;;16.30;99.90;;;;;;5032156;28;20128;-47
2021/10/21 04:10:19;;;;;;;1.83;1.50;;;16.40;99.90;;;;;;5033469;28;20087;-48
2021/10/21 04:12:45;;;;;;;2.83;1.40;;;16.40;99.90;;;;;;5033443;28;20021;-50
2021/10/21 04:15:11;;;;;;;2.17;1.38;;;16.40;99.90;;;;;;5033426;28;20025;-46
2021/10/21 04:17:37;;;;;;;1.58;1.17;;;16.40;99.90;;;;;;5033488;28;20029;-48
2021/10/21 04:20:04;;;;;;;1.90;1.40;;;16.40;99.90;;;;;;5033405;28;20029;-49
2021/10/21 04:22:30;;;;;;;2.17;1.13;;;16.40;99.90;;;;;;5033263;28;20033;-48
2021/10/21 04:24:55;;;;;;;1.27;1.17;;;16.40;99.90;;;;;;5031962;28;20373;-47
2021/10/21 04:27:21;;;;;;;2.85;1.00;;;16.40;99.90;;;;;;5033273;28;20033;-50
2021/10/21 04:29:46;;;;;;;1.30;1.20;;;16.40;99.90;;;;;;5033216;28;20029;-49
2021/10/21 04:32:12;;;;;;;4.00;0.80;;;16.50;99.90;;;;;;5033108;28;20113;-51
2021/10/21 04:34:37;;;;;;;1.08;0.90;;;16.50;99.90;;;;;;5033159;28;20457;-48
2021/10/21 04:37:03;;;;;;;1.25;0.77;;;16.50;99.90;;;;;;5033076;28;20025;-46
2021/10/21 04:39:29;;;;;;;3.22;1.27;;;16.50;99.90;;;;;;5031750;28;20279;-47
2021/10/21 04:41:54;;;;;;;2.97;1.13;;;16.40;99.90;;;;;;5033050;28;20048;-46
2021/10/21 04:44:20;;;;;;;0.98;0.80;;;16.40;99.90;;;;;;5033047;28;20033;-51
2021/10/21 04:46:46;;;;;;;1.98;1.00;;;16.20;99.90;;;;;;5032963;28;20051;-49
2021/10/21 04:49:12;;;;;;;1.02;0.90;;;16.00;99.90;;;;;;5033061;28;20034;-45
2021/10/21 04:51:37;;;;;;;1.60;0.80;;;15.90;99.90;;;;;;5032888;28;20037;-48
2021/10/21 04:54:03;;;;;;;3.75;0.93;;;15.70;99.90;;;;;;5031755;28;20025;-48
2021/10/21 04:56:28;;;;;;;1.95;1.00;;;15.50;99.90;;;;;;5032903;28;20053;-51
2021/10/21 04:58:54;;;;;;;1.58;0.90;;;15.40;99.90;;;;;;5032756;28;20354;-48
2021/10/21 05:01:19;;;;;;;0.98;0.80;;;15.30;99.90;;;;;;5032853;28;20038;-48
2021/10/21 05:03:45;;;;;;;0.82;0.82;;;15.20;99.90;;;;;;5032849;28;20032;-45
2021/10/21 05:06:10;;;;;;;2.42;1.10;;;15.00;99.90;;;;;;5032830;28;20021;-50
2021/10/21 05:08:36;;;;;;;3.33;1.13;;;14.90;99.90;;;;;;5031282;28;20056;-49
2021/10/21 05:11:02;;;;;;;1.60;1.27;;;14.80;99.90;;;;;;5032745;28;20036;-46
2021/10/21 05:13:27;;;;;;;1.85;1.00;;;14.80;99.90;;;;;;5032743;28;20052;-51
2021/10/21 05:15:53;;;;;;;1.35;1.10;;;14.70;99.90;;;;;;5032690;28;20021;-48
2021/10/21 05:18:18;;;;;;;2.72;1.20;;;14.70;99.90;;;;;;5032683;28;20025;-48
2021/10/21 05:20:44;;;;;;;2.03;1.20;;;14.60;99.90;;;;;;5032683;28;20085;-51
2021/10/21 05:23:09;;;;;;;1.80;1.00;;;14.60;99.90;;;;;;5031196;28;20025;-48
2021/10/21 05:25:35;;;;;;;1.95;0.90;;;14.50;99.90;;;;;;5032673;28;20064;-47
2021/10/21 05:28:01;;;;;;;4.90;1.40;;;14.50;99.90;;;;;;5032551;28;20034;-47
2021/10/21 05:30:27;;;;;;;1.67;1.35;;;14.40;99.90;;;;;;5032600;28;20025;-46
2021/10/21 05:32:52;;;;;;;1.33;1.05;;;14.40;99.90;;;;;;5032417;28;20033;-46
2021/10/21 05:35:18;;;;;;;1.77;1.30;;;14.40;99.90;;;;;;5032648;28;20018;-44
2021/10/21 05:37:43;;;;;;;1.65;1.10;;;14.30;99.90;;;;;;5031760;28;20080;-51
2021/10/21 05:40:09;;;;;;;2.38;1.02;;;14.40;99.90;;;;;;5032011;28;20407;-47
2021/10/21 05:42:35;;;;;;;1.48;1.13;;;14.30;99.90;;;;;;5032565;28;20080;-47
2021/10/21 05:45:00;;;;;;;3.58;0.95;;;14.30;99.90;;;;;;5032417;28;20468;-46
2021/10/21 05:47:26;;;;;;;3.22;1.40;;;14.30;99.90;;;;;;5032453;28;20036;-47
2021/10/21 05:49:52;;;;;;;1.75;1.35;;;14.30;99.90;;;;;;5032340;28;20362;-47
2021/10/21 05:52:20;;;;;;;1.45;1.00;;;14.30;99.90;;;;;;5032185;28;20022;-45
2021/10/21 05:54:46;;;;;;;1.23;1.13;;;14.40;99.90;;;;;;5031062;28;20034;-50
2021/10/21 05:57:12;;;;;;;4.35;1.40;;;14.30;99.90;;;;;;5032242;28;20033;-48
2021/10/21 05:59:37;;;;;;;1.33;1.10;;;14.40;99.90;;;;;;5032385;28;20029;-45
2021/10/21 06:02:03;;;;;;;0.90;0.90;;;14.40;99.90;;;;;;5032184;28;20105;-43
2021/10/21 06:04:28;;;;;;;4.45;1.10;;;14.40;99.90;;;;;;5032254;28;20378;-46
2021/10/21 06:06:54;;;;;;;1.92;1.33;;;14.50;99.90;;;;;;5031855;28;20033;-48
2021/10/21 06:09:23;;;;;;;2.15;1.20;;;14.50;99.90;;;;;;5031059;28;20029;-47
2021/10/21 06:11:49;;;;;;;2.50;1.38;;;14.60;99.90;;;;;;5035726;28;20469;-47
2021/10/21 06:14:14;;;;;;;4.28;1.38;;;14.50;99.90;;;;;;5035692;28;20053;-48
2021/10/21 06:16:42;;;;;;;1.85;1.40;;;14.60;99.90;;;;;;5035697;28;20061;-50
2021/10/21 06:19:08;;;;;;;0.98;0.88;;;14.60;99.90;;;;;;5035605;28;20024;-47
2021/10/21 06:21:33;;;;;;;1.27;1.05;;;14.60;99.90;;;;;;5035532;28;20104;-46
2021/10/21 06:23:59;;;;;;;1.25;1.15;;;14.60;99.90;;;;;;5034214;28;20480;-48
2021/10/21 06:26:25;;;;;;;1.60;1.20;;;14.70;99.90;;;;;;5035460;28;20025;-45
2021/10/21 06:28:51;;;;;;;1.50;1.25;;;14.70;99.90;;;;;;5035428;28;20064;-51
2021/10/21 06:31:21;;;;;;;1.23;0.93;;;14.70;99.90;;;;;;5035456;28;20029;-47
2021/10/21 06:33:48;;;;;;;2.38;1.35;;;14.80;99.90;;;;;;5035428;28;20084;-51
2021/10/21 06:36:13;;;;;;;1.20;1.05;;;14.80;99.90;;;;;;5035218;28;20032;-50
2021/10/21 06:38:39;;;;;;;2.05;1.08;;;14.80;99.90;;;;;;5034057;28;20034;-47
2021/10/21 06:41:05;;;;;;;1.38;1.10;;;14.80;99.90;;;;;;5035269;28;20037;-48
2021/10/21 06:43:31;;;;;;;1.60;1.20;;;14.80;99.90;;;;;;5035340;28;20029;-54
2021/10/21 06:45:57;;;;;;;2.15;1.10;;;14.90;99.90;;;;;;5035425;28;20036;-48
2021/10/21 06:48:22;;;;;;;2.25;1.10;;;14.90;99.90;;;;;;5035108;28;20393;-46
2021/10/21 06:50:48;;;;;;;0.95;0.80;;;14.90;99.90;;;;;;5034999;28;20108;-47
2021/10/21 06:53:13;;;;;;;1.55;1.00;;;15.00;99.90;;;;;;5033604;28;20033;-46
2021/10/21 06:55:39;;;;;;;0.77;0.77;;;15.10;99.90;;;;;;5035072;28;20025;-49
2021/10/21 06:58:04;;;;;;;1.15;0.80;;;15.10;99.90;;;;;;5034936;28;20487;-48
2021/10/21 07:00:37;;;;;;;0.98;0.77;;;15.20;99.90;;;;;;5035006;28;20439;-49
2021/10/21 07:03:03;;;;;;;1.02;0.88;;;15.20;99.90;;;;;;5034720;28;20021;-46
2021/10/21 07:05:32;;;;;;;1.80;0.80;;;15.30;99.90;;;;;;5034700;28;20029;-47
2021/10/21 07:07:58;;;;;;;3.67;1.15;;;15.40;99.90;;;;;;5033298;28;20060;-44
2021/10/21 07:10:23;;;;;;;1.42;0.70;;;15.50;99.90;;;;;;5034678;28;20033;-49
2021/10/21 07:12:49;;;;;;;0.95;0.85;;;15.50;99.90;;;;;;5034783;28;20409;-48
2021/10/21 07:15:17;;;;;;;2.15;0.75;;;15.60;99.90;;;;;;5034609;28;20021;-47
2021/10/21 07:17:43;;;;;;;2.20;0.88;;;15.60;99.90;;;;;;5034560;28;20026;-51
2021/10/21 07:20:13;;;;;;;0.93;0.70;;;15.70;99.90;;;;;;5034411;28;20029;-47
2021/10/21 07:22:39;;;;;;;2.92;0.80;;;15.80;99.90;;;;;;5032989;28;20029;-47
2021/10/21 07:25:06;;;;;;;1.60;0.80;;;15.80;99.90;;;;;;5033724;28;20087;-48
2021/10/21 07:27:31;;;;;;;5.03;1.00;;;15.80;99.90;;;;;;5034457;28;20021;-49
2021/10/21 07:29:57;;;;;;;3.08;0.70;;;15.90;99.90;;;;;;5034347;28;20355;-47
2021/10/21 07:32:22;;;;;;;1.55;0.70;;;15.90;99.90;;;;;;5034098;28;20140;-45
2021/10/21 07:34:48;;;;;;;3.63;0.73;;;15.80;93.80;;;;;;5034275;28;20030;-49
2021/10/21 07:37:14;;;;;;;10.07;1.55;;;15.70;92.90;;;;;;5034147;28;20030;-48
2021/10/21 07:39:40;;;;;;;2.05;0.80;;;15.60;92.20;;;;;;5032934;28;20503;-48
2021/10/21 07:42:09;;;;;;;5.82;0.70;;;15.60;90.60;;;;;;5034020;28;20106;-47
2021/10/21 07:44:46;;;;;;;6.40;1.20;;;15.40;91.10;;;;;;5034023;28;20108;-47
2021/10/21 07:47:12;;;;;;;2.55;0.70;;;15.50;92.50;;;;;;5033854;28;20036;-48
2021/10/21 07:49:38;;;;;;;3.15;0.57;;;15.50;92.50;;;;;;5033963;28;20113;-47
2021/10/21 07:52:04;;;;;;;5.78;1.10;;;15.60;93.10;;;;;;5033798;28;20097;-48
2021/10/21 07:54:31;;;;;;;5.50;0.82;;;15.90;90.90;;;;;;5032486;28;20025;-51
2021/10/21 07:56:58;;;;;;;5.28;1.20;;;16.40;87.30;;;;;;5033862;28;20013;-49
2021/10/21 07:59:27;;;;;;;7.30;0.95;;;16.80;73.20;;;;;;5033759;28;20033;-51
2021/10/21 08:01:59;;;;;;;2.80;0.95;;;17.10;69.50;;;;;;5033671;28;20033;-46
2021/10/21 08:04:26;;;;;;;4.13;1.10;;;17.40;71.40;;;;;;5033653;28;20109;-47
2021/10/21 08:06:52;;;;;;;2.00;0.57;;;17.60;75.50;;;;;;5033557;28;20040;-48
2021/10/21 08:09:19;;;;;;;2.50;0.90;;;17.90;77.30;;;;;;5032266;28;20041;-48
2021/10/21 08:11:47;;;;;;;4.63;0.60;;;18.00;62.40;;;;;;5033554;28;20108;-50
2021/10/21 08:14:13;;;;;;;4.47;0.60;;;17.80;65.80;;;;;;5033369;28;20404;-47
2021/10/21 08:16:38;;;;;;;4.50;0.80;;;17.70;58.70;;;;;;5033533;28;20032;-47
2021/10/21 08:19:04;;;;;;;7.25;0.80;;;17.70;64.30;;;;;;5033421;28;20021;-52
2021/10/21 08:21:32;;;;;;;5.65;0.90;;;17.70;63.90;;;;;;5033325;28;20037;-48
2021/10/21 08:23:59;;;;;;;5.75;0.90;;;17.70;57.60;;;;;;5032102;28;20112;-49
2021/10/21 08:26:26;;;;;;;8.23;0.70;;;17.80;64.20;;;;;;5033332;28;20064;-46
2021/10/21 08:28:52;;;;;;;3.70;0.80;;;18.00;64.30;;;;;;5033205;28;20573;-45
2021/10/21 08:31:18;;;;;;;1.25;0.60;;;18.10;60.30;;;;;;5033241;28;20072;-49
2021/10/21 08:33:45;;;;;;;6.10;1.23;;;18.40;61.60;;;;;;5032817;28;20033;-48
2021/10/21 08:36:14;;;;;;;2.90;0.80;;;18.60;52.80;;;;;;5031916;28;20508;-53
2021/10/21 08:38:40;;;;;;;2.40;0.88;;;18.70;56.10;;;;;;5031909;28;20033;-50
2021/10/21 08:41:07;;;;;;;3.45;0.63;;;18.60;55.90;;;;;;5033368;28;20052;-46
2021/10/21 08:43:34;;;;;;;1.38;0.75;;;18.60;57.50;;;;;;5033218;28;20021;-48
2021/10/21 08:46:00;;;;;;;3.03;0.98;;;18.50;57.80;;;;;;5033052;28;20420;-51
2021/10/21 08:48:28;;;;;;;1.80;0.80;;;18.40;54.20;;;;;;5033008;28;20487;-45
2021/10/21 08:51:00;;;;;;;7.25;0.85;;;18.20;54.50;;;;;;5033020;28;20029;-46
2021/10/21 08:53:26;;;;;;;2.55;0.82;;;17.90;53.00;;;;;;5031464;28;20037;-45
2021/10/21 08:55:52;;;;;;;2.70;0.70;;;17.70;55.40;;;;;;5033072;28;20031;-49
2021/10/21 08:58:18;;;;;;;7.25;1.23;;;17.40;57.10;;;;;;5032854;28;20072;-49
2021/10/21 09:00:44;;;;;;;5.18;1.15;;;17.20;56.50;;;;;;5032891;28;20029;-49
2021/10/21 09:03:23;;;;;;;6.68;1.02;;;17.00;58.00;;;;;;5032797;28;20033;-50
2021/10/21 09:05:56;;;;;;;2.03;0.80;;;16.80;57.40;;;;;;5032807;28;20424;-50
2021/10/21 09:08:22;;;;;;;6.55;1.05;;;16.70;60.20;;;;;;5031250;28;20044;-47
2021/10/21 09:10:55;;;;;;;1.88;0.80;;;16.50;60.80;;;;;;5032790;28;20044;-49
2021/10/21 09:13:34;;;;;;;1.70;0.43;;;16.40;60.60;;;;;;5032636;28;20104;-48
2021/10/21 09:16:02;;;;;;;2.85;0.63;;;16.40;61.30;;;;;;5032704;28;20516;-51
2021/10/21 09:18:44;;;;;;;8.10;1.02;;;16.30;61.50;;;;;;5032621;28;20112;-49
2021/10/21 09:21:48;;;;;;;5.90;1.10;;;16.20;61.40;;;;;;5032626;28;20049;-53
2021/10/21 09:24:30;;;;;;;14.48;1.33;;;16.20;62.60;;;;;;4989750;28;20030;-51
2021/10/21 09:27:04;;;;;;;5.07;0.80;;;16.10;63.40;;;;;;4991155;28;20150;-51
2021/10/21 09:29:31;;;;;;;9.00;1.10;;;16.10;64.40;;;;;;5017176;28;20492;-52
2021/10/21 09:32:14;;;;;;;3.80;0.90;;;16.10;63.60;;;;;;5032761;28;20033;-47
2021/10/21 09:34:56;;;;;;;4.88;0.80;;;16.10;63.20;;;;;;5032628;28;20036;-48
2021/10/21 09:37:27;;;;;;;10.52;1.48;;;16.10;65.10;;;;;;5032455;28;20105;-48
2021/10/21 09:40:07;;;;;;;4.07;0.77;;;16.10;65.10;;;;;;5031202;28;20492;-48
2021/10/21 09:42:40;;;;;;;3.47;0.80;;;16.20;63.80;;;;;;5032450;28;20029;-49
2021/10/21 09:45:13;;;;;;;9.43;1.00;;;16.20;64.80;;;;;;5033979;28;20465;-51
2021/10/21 09:47:44;;;;;;;5.30;0.90;;;16.20;64.10;;;;;;5036447;28;20034;-45
2021/10/21 09:50:31;;;;;;;4.00;0.88;;;16.10;65.00;;;;;;5036148;28;20496;-48
2021/10/21 09:53:18;;;;;;;4.55;0.90;;;16.10;64.70;;;;;;5034855;28;20551;-45
2021/10/21 09:56:01;;;;;;;5.90;0.88;;;16.00;66.50;;;;;;5036170;28;20044;-47
2021/10/21 09:58:30;;;;;;;7.35;0.80;;;15.90;66.90;;;;;;5035920;28;20508;-46
2021/10/21 10:01:10;;;;;;;21.77;1.10;;;15.90;67.20;;;;;;5036130;28;20397;-48
2021/10/21 10:03:42;;;;;;;9.85;1.00;;;16.00;64.90;;;;;;5035919;28;20030;-50
2021/10/21 10:06:08;;;;;;;7.22;0.95;;;16.10;64.60;;;;;;5035956;28;20033;-47
2021/10/21 10:08:34;;;;;;;3.25;0.80;;;16.20;65.30;;;;;;5034473;28;20092;-46
2021/10/21 10:11:02;;;;;;;14.20;1.13;;;16.20;64.50;;;;;;5035684;28;20507;-49
2021/10/21 10:13:29;;;;;;;8.30;1.05;;;16.20;64.50;;;;;;5035901;28;20018;-48
2021/10/21 10:15:56;;;;;;;9.75;0.80;;;16.10;64.40;;;;;;5035732;28;20455;-49
2021/10/21 10:18:27;;;;;;;6.63;1.15;;;16.10;64.80;;;;;;5035723;28;20036;-49
2021/10/21 10:21:05;;;;;;;7.95;0.73;;;16.00;64.40;;;;;;5035719;28;20029;-47
2021/10/21 10:23:33;;;;;;;8.23;0.73;;;16.00;65.20;;;;;;5034189;28;20223;-47
2021/10/21 10:25:59;;;;;;;6.20;0.73;;;16.10;65.70;;;;;;5035633;28;20033;-44
2021/10/21 10:28:25;;;;;;;10.65;1.00;;;16.10;67.20;;;;;;5035468;28;20500;-45
2021/10/21 10:30:52;;;;;;;8.13;0.85;;;16.10;66.30;;;;;;5035514;28;20037;-51
2021/10/21 10:33:32;;;;;;;8.88;1.08;;;16.10;66.10;;;;;;5035364;28;20030;-51
2021/10/21 10:36:28;;;;;;;3.63;0.60;;;16.20;64.60;;;;;;5035242;28;20032;-49
2021/10/21 10:39:01;;;;;;;7.03;0.70;;;16.10;63.00;;;;;;5034080;28;20496;-48
2021/10/21 10:41:42;;;;;;;3.22;1.00;;;16.10;64.40;;;;;;5035198;28;20389;-51
2021/10/21 10:44:32;;;;;;;4.38;0.88;;;16.20;62.80;;;;;;5035313;28;20380;-47
2021/10/21 10:46:58;;;;;;;8.95;1.23;;;16.30;64.70;;;;;;5035091;28;20045;-47
2021/10/21 10:49:38;;;;;;;6.03;1.05;;;16.30;62.60;;;;;;5035331;28;20472;-52
2021/10/21 10:52:12;;;;;;;12.40;0.85;;;16.30;64.00;;;;;;5035002;28;20035;-48
2021/10/21 10:54:44;;;;;;;11.68;1.10;;;16.30;65.00;;;;;;5033681;28;20083;-49
2021/10/21 10:57:11;;;;;;;11.65;1.08;;;16.20;64.10;;;;;;5034726;28;20029;-46
2021/10/21 10:59:36;;;;;;;8.90;0.95;;;16.20;65.60;;;;;;5034935;28;20026;-49
2021/10/21 11:02:22;;;;;;;6.35;0.73;;;16.20;65.50;;;;;;5034863;28;20045;-45
2021/10/21 11:04:53;;;;;;;7.35;1.20;;;16.30;65.20;;;;;;5027517;28;20044;-49
2021/10/21 11:07:30;;;;;;;4.20;0.70;;;16.20;66.20;;;;;;5034624;28;20037;-47
2021/10/21 11:10:15;;;;;;;4.80;0.40;;;16.10;67.20;;;;;;5033465;28;20032;-49
2021/10/21 11:12:41;;;;;;;16.52;1.02;;;16.00;71.20;;;;;;5034572;28;20022;-50
2021/10/21 11:15:28;;;;;;;5.88;0.75;;;15.90;79.40;;;;;;5034689;28;20048;-49
2021/10/21 11:17:54;;;;;;;3.70;0.50;;;15.50;93.90;;;;;;5034500;28;20036;-50
2021/10/21 11:20:26;;;;;;;6.05;0.85;;;15.10;99.10;;;;;;5034617;28;20366;-49
2021/10/21 11:23:02;;;;;;;8.77;0.65;;;14.70;99.90;;;;;;5033259;28;20030;-47
2021/10/21 11:25:30;;;;;;;2.53;0.60;;;14.40;99.90;;;;;;5034464;28;20075;-49
2021/10/21 11:27:56;;;;;;;0.80;0.28;;;14.40;99.90;;;;;;5034396;28;20029;-47
2021/10/21 11:30:24;;;;;;;1.48;0.52;;;14.30;99.90;;;;;;5034098;28;20538;-48
2021/10/21 11:32:51;;;;;;;0.75;0.22;;;14.30;99.90;;;;;;5034270;28;20080;-48
2021/10/21 11:35:37;;;;;;;0.43;0.28;;;14.10;99.90;;;;;;5034275;28;20105;-51
2021/10/21 11:38:24;;;;;;;2.15;0.38;;;14.00;99.90;;;;;;5033030;28;20056;-47
2021/10/21 11:40:52;;;;;;;2.78;0.20;;;13.90;99.90;;;;;;5033590;28;20040;-48
2021/10/21 11:43:36;;;;;;;1.13;0.30;;;13.80;99.90;;;;;;5034189;28;20021;-48
2021/10/21 11:46:05;;;;;;;1.35;0.40;;;13.80;99.90;;;;;;5034040;28;20520;-48
2021/10/21 11:48:36;;;;;;;4.35;0.30;;;13.80;99.90;;;;;;5034001;28;20029;-51
2021/10/21 11:51:04;;;;;;;1.40;0.30;;;13.80;99.90;;;;;;5034146;28;20342;-45
2021/10/21 11:53:30;;;;;;;0.45;0.17;;;13.80;99.90;;;;;;5032392;28;20029;-51
2021/10/21 11:55:56;;;;;;;0.30;0.20;;;13.90;99.90;;;;;;5033874;28;20108;-49
2021/10/21 11:58:26;;;;;;;1.92;0.25;;;13.80;99.90;;;;;;5033831;28;20109;-47
2021/10/21 12:01:05;;;;;;;1.40;0.20;;;13.80;99.90;;;;;;5033741;28;20022;-46
2021/10/21 12:03:39;;;;;;;2.88;0.57;;;13.80;99.90;;;;;;5033662;28;20381;-48
2021/10/21 12:06:06;;;;;;;5.25;0.73;;;13.70;99.90;;;;;;5033732;28;20106;-46
2021/10/21 12:08:32;;;;;;;1.17;0.30;;;13.60;99.90;;;;;;5031660;28;20057;-46
2021/10/21 12:11:04;;;;;;;0.70;0.32;;;13.50;99.90;;;;;;5033669;28;20056;-47
2021/10/21 12:13:34;;;;;;;0.65;0.40;;;13.40;99.90;;;;;;5033497;28;20049;-47
2021/10/21 12:16:02;;;;;;;0.70;0.50;;;13.40;99.90;;;;;;5033562;28;20022;-47
2021/10/21 12:18:31;;;;;;;4.32;0.47;;;13.50;99.90;;;;;;5033308;28;20105;-51
2021/10/21 12:21:02;;;;;;;0.57;0.20;;;13.50;99.90;;;;;;5033415;28;20372;-49
2021/10/21 12:23:31;;;;;;;0.13;0.13;;;13.70;99.90;;;;;;5032085;28;20021;-49
2021/10/21 12:25:58;;;;;;;1.58;0.70;;;13.80;99.90;;;;;;5033370;28;20064;-48
2021/10/21 12:28:37;;;;;;;0.73;0.40;;;13.80;99.90;;;;;;5033336;28;20109;-48
2021/10/21 12:31:15;;;;;;;3.50;0.30;;;13.80;99.90;;;;;;5033338;28;20033;-47
2021/10/21 12:33:53;;;;;;;1.58;0.50;;;13.80;99.90;;;;;;5033121;28;20025;-48
2021/10/21 12:36:21;;;;;;;2.45;0.40;;;13.90;99.90;;;;;;5033211;28;20465;-48
2021/10/21 12:38:52;;;;;;;1.35;0.43;;;14.00;99.90;;;;;;5032034;28;20025;-47
2021/10/21 12:41:19;;;;;;;2.67;0.57;;;13.90;99.80;;;;;;5033033;28;20017;-48
2021/10/21 12:43:59;;;;;;;6.18;0.80;;;13.90;99.90;;;;;;5033097;28;20026;-47
2021/10/21 12:46:28;;;;;;;1.95;0.50;;;13.90;99.80;;;;;;5033065;28;20038;-49
2021/10/21 12:49:15;;;;;;;2.53;0.73;;;13.80;99.10;;;;;;5033052;28;20033;-49
2021/10/21 12:51:41;;;;;;;;;;;13.70;98.00;;;;;;5033185;28;20026;-45
2021/10/21 12:54:08;;;;;;;;;;;13.60;97.80;;;;;;5032131;28;19905;-50